Kassel, Germany

11:44 AM CET on December 10, 2016 (GMT +0100)
Brazen Gate | | Change Station

Elev 0 ft 51.30 °N, 9.44 °E | Updated 1 minute ago

Molnigt
Molnigt
45.3 °F
Feels Like 44 °F
N
3.1
Vind Växlande Vind from Sydlig
Gusts 8.7 miles/tim

Idag
High -- | Low -- °F
--% Chance of Precip.
Yesterday
High -- | Low -- °F
Precip. -- tum
Lufttryck 30.21 tum
Sikt 6.2 miles
Molnigt Mestadels molnigt 2900 ft
Vindavkylning 44 °F
Daggpunkt 43 °F
Luftfuktighet 90%
Rainfall 0.00 tum
Snow Depth Not available.
8:15 AM 4:14 PM
Andra kvarteret, 82% visible
METAR EDVK 101020Z 12004KT 090V150 9999 BKN029 05/04 Q1023
Lufttryck 30.21 tum
Sikt 6.2 miles
Molnigt Mestadels molnigt 2900 ft
Vindavkylning 44 °F
Daggpunkt 43 °F
Luftfuktighet 90%
Rainfall 0.00 tum
Snow Depth Not available.
8:15 AM 4:14 PM
Andra kvarteret, 82% visible
METAR EDVK 101020Z 12004KT 090V150 9999 BKN029 05/04 Q1023

10-Day Weather Forecast

×

Almanac

Astronomi

Dec. 10, 2016 Rise Set
Actual Time
Civil Twilight
Nautical Twilight
Astronomical Twilight
Månen
Length Of Visible Light
Dagens längd
Tomorrow will be .
, % of the Moon is Illuminated

Today's Extremes

Country Highs Country Lows

Community

WunderPhotos

Upload Photos

1,956,536 photos uploaded!

WunderBlog® & News

Nearby

Air Quality

  Air Quality AQ Index Pollutant
Not available.

Snödjup

Station Depth Elevation

Earthquake Activity

Stad Distance Mag. Time & Date
Minimum magnitude displayed is 2.5.

Coastal Water Temperatures

Plats Temperatur

Stations

Nearby Weather Stations

Station Location Temp Vindavkylning Daggpunkt Luftfuktighet Vind Precip. Elev Uppdaterad Type